Linden, Pennsylvania
Current Conditions -  °F | °C
As of 12:54 AM on Sunday 26 Oct 2014 (Local Time) from KIPT Reporting Station
Scattered Clouds Scattered Clouds  
Wind Chill: 53°   Ceiling: Unl
Heat Index: 53°   Visibility: 10mi
Dew Point: 42°   Wind: 3mph
Humidity: 66%   Direction: 250°WSW
Pressure: 29.6"   Gusts: NA
Location:  41.23°N, 77.13°W
Report Text: KIPT 260454Z AUTO 25003KT 10SM SCT055 12/06 A2960 RMK AO2 SLP022 T01170056 402110039
Loading
Personal Weather Stations






























Interactive Weather Map
Tropical Storm Tracking
New forecast layout! Learn more

10-Day Weather Forecast

Advertisements
Track Severe Weather on mobile